ベロオリゾンテ の空港の天気 - METARとTAF

タンクレド・ネヴェス国際空港 ( SBCF / CNF ) - ブラジル ミナスジェライス州ベロオリゾンテ
飛行場実況気象(Metar)
観測時間09/25 00:00 BRT (09/25 03:00 UTC)
風向・風速東南東 4m/s
視程10km以上
天気現象
なし
気温22℃
湿度60%
気圧1018hPa
METARSBCF 250300Z 12007KT CAVOK 22/14 Q1018
過去の天気等 Google飛行場航空写真 Wunderground天気予報

過去48時間のMETAR

飛行場予報(TAF)
発表時間: 9/24 19:00 BRT (9/24 22:00 UTC)
予報対象時間: 24日21時 BRT ~ 25日21時 BRT
風向・風速南南東 3m/s
視程10km以上
なし
25日6時 BRT ~ 25日8時 BRT に徐々に
風向・風速東 3m/s
TAF SBCF 242200Z 2500/2524 16005KT CAVOK TN17/2508Z TX30/2518Z
BECMG 2509/2511 09005KT RMK PDS